sensor_id;sensor_type;location;lat;lon;timestamp;temperature;humidity
21019;DHT22;10667;51.056;3.732;2023-05-24T00:01:08;12.30;99.90
21019;DHT22;10667;51.056;3.732;2023-05-24T00:03:34;12.20;99.90
21019;DHT22;10667;51.056;3.732;2023-05-24T00:06:03;12.10;99.90
21019;DHT22;10667;51.056;3.732;2023-05-24T00:08:31;12.20;99.90
21019;DHT22;10667;51.056;3.732;2023-05-24T00:10:57;12.20;99.90
21019;DHT22;10667;51.056;3.732;2023-05-24T00:13:23;12.20;99.90
21019;DHT22;10667;51.056;3.732;2023-05-24T00:15:49;12.10;99.90
21019;DHT22;10667;51.056;3.732;2023-05-24T00:18:14;12.00;99.90
21019;DHT22;10667;51.056;3.732;2023-05-24T00:20:42;12.00;99.90
21019;DHT22;10667;51.056;3.732;2023-05-24T00:23:08;12.00;99.90
21019;DHT22;10667;51.056;3.732;2023-05-24T00:25:34;12.00;99.90
21019;DHT22;10667;51.056;3.732;2023-05-24T00:28:00;11.90;99.90
21019;DHT22;10667;51.056;3.732;2023-05-24T00:30:26;11.80;99.90
21019;DHT22;10667;51.056;3.732;2023-05-24T00:32:51;11.80;99.90
21019;DHT22;10667;51.056;3.732;2023-05-24T00:35:17;11.80;99.90
21019;DHT22;10667;51.056;3.732;2023-05-24T00:37:43;11.80;99.90
21019;DHT22;10667;51.056;3.732;2023-05-24T00:40:10;11.80;99.90
21019;DHT22;10667;51.056;3.732;2023-05-24T00:42:37;11.80;99.90
21019;DHT22;10667;51.056;3.732;2023-05-24T00:45:02;11.80;99.90
21019;DHT22;10667;51.056;3.732;2023-05-24T00:47:28;11.80;99.90
21019;DHT22;10667;51.056;3.732;2023-05-24T00:49:54;11.90;99.90
21019;DHT22;10667;51.056;3.732;2023-05-24T00:52:20;11.90;99.90
21019;DHT22;10667;51.056;3.732;2023-05-24T00:54:46;11.80;99.90
21019;DHT22;10667;51.056;3.732;2023-05-24T00:57:11;11.90;99.90
21019;DHT22;10667;51.056;3.732;2023-05-24T00:59:41;12.00;99.90
21019;DHT22;10667;51.056;3.732;2023-05-24T01:02:07;11.90;99.90
21019;DHT22;10667;51.056;3.732;2023-05-24T01:04:33;11.90;99.90
21019;DHT22;10667;51.056;3.732;2023-05-24T01:09:58;11.80;99.90
21019;DHT22;10667;51.056;3.732;2023-05-24T01:18:17;11.80;99.90
21019;DHT22;10667;51.056;3.732;2023-05-24T01:20:50;11.90;99.90
21019;DHT22;10667;51.056;3.732;2023-05-24T01:23:30;11.90;99.90
21019;DHT22;10667;51.056;3.732;2023-05-24T01:28:35;11.80;99.90
21019;DHT22;10667;51.056;3.732;2023-05-24T01:31:01;11.90;99.90
21019;DHT22;10667;51.056;3.732;2023-05-24T01:33:28;11.90;99.90
21019;DHT22;10667;51.056;3.732;2023-05-24T01:35:53;11.90;99.90
21019;DHT22;10667;51.056;3.732;2023-05-24T01:38:19;11.80;99.90
21019;DHT22;10667;51.056;3.732;2023-05-24T01:40:47;11.80;99.90
21019;DHT22;10667;51.056;3.732;2023-05-24T01:43:22;11.80;99.90
21019;DHT22;10667;51.056;3.732;2023-05-24T01:49:21;11.80;99.90
21019;DHT22;10667;51.056;3.732;2023-05-24T01:51:56;11.80;99.90
21019;DHT22;10667;51.056;3.732;2023-05-24T01:54:25;11.70;99.90
21019;DHT22;10667;51.056;3.732;2023-05-24T01:56:55;11.80;99.90
21019;DHT22;10667;51.056;3.732;2023-05-24T01:59:22;11.80;99.90
21019;DHT22;10667;51.056;3.732;2023-05-24T02:01:48;11.70;99.90
21019;DHT22;10667;51.056;3.732;2023-05-24T02:04:15;11.70;99.90
21019;DHT22;10667;51.056;3.732;2023-05-24T02:06:41;11.80;99.90
21019;DHT22;10667;51.056;3.732;2023-05-24T02:09:07;11.90;99.90
21019;DHT22;10667;51.056;3.732;2023-05-24T02:11:32;11.80;99.90
21019;DHT22;10667;51.056;3.732;2023-05-24T02:13:58;11.70;99.90
21019;DHT22;10667;51.056;3.732;2023-05-24T02:16:24;11.70;99.90
21019;DHT22;10667;51.056;3.732;2023-05-24T02:18:51;11.50;99.90
21019;DHT22;10667;51.056;3.732;2023-05-24T02:21:17;11.60;99.90
21019;DHT22;10667;51.056;3.732;2023-05-24T02:23:43;11.60;99.90
21019;DHT22;10667;51.056;3.732;2023-05-24T02:26:08;11.60;99.90
21019;DHT22;10667;51.056;3.732;2023-05-24T02:28:36;11.60;99.90
21019;DHT22;10667;51.056;3.732;2023-05-24T02:31:02;11.50;99.90
21019;DHT22;10667;51.056;3.732;2023-05-24T02:33:28;11.60;99.90
21019;DHT22;10667;51.056;3.732;2023-05-24T02:35:54;11.60;99.90
21019;DHT22;10667;51.056;3.732;2023-05-24T02:38:20;11.50;99.90
21019;DHT22;10667;51.056;3.732;2023-05-24T02:40:46;11.60;99.90
21019;DHT22;10667;51.056;3.732;2023-05-24T02:43:12;11.50;99.90
21019;DHT22;10667;51.056;3.732;2023-05-24T02:45:38;11.50;99.90
21019;DHT22;10667;51.056;3.732;2023-05-24T02:48:03;11.50;99.90
21019;DHT22;10667;51.056;3.732;2023-05-24T02:50:30;11.50;99.90
21019;DHT22;10667;51.056;3.732;2023-05-24T02:52:55;11.50;99.90
21019;DHT22;10667;51.056;3.732;2023-05-24T02:55:21;11.40;99.90
21019;DHT22;10667;51.056;3.732;2023-05-24T02:57:47;11.40;99.90
21019;DHT22;10667;51.056;3.732;2023-05-24T03:00:13;11.40;99.90
21019;DHT22;10667;51.056;3.732;2023-05-24T03:02:39;11.30;99.90
21019;DHT22;10667;51.056;3.732;2023-05-24T03:05:06;11.30;99.90
21019;DHT22;10667;51.056;3.732;2023-05-24T03:07:32;11.20;99.90
21019;DHT22;10667;51.056;3.732;2023-05-24T03:09:58;11.10;99.90
21019;DHT22;10667;51.056;3.732;2023-05-24T03:12:23;11.10;99.90
21019;DHT22;10667;51.056;3.732;2023-05-24T03:14:49;11.00;99.90
21019;DHT22;10667;51.056;3.732;2023-05-24T03:17:15;11.00;99.90
21019;DHT22;10667;51.056;3.732;2023-05-24T03:19:40;11.10;99.90
21019;DHT22;10667;51.056;3.732;2023-05-24T03:22:06;11.00;99.90
21019;DHT22;10667;51.056;3.732;2023-05-24T03:24:32;11.00;99.90
21019;DHT22;10667;51.056;3.732;2023-05-24T03:26:58;11.00;99.90
21019;DHT22;10667;51.056;3.732;2023-05-24T03:29:24;11.10;99.90
21019;DHT22;10667;51.056;3.732;2023-05-24T03:31:50;11.10;99.90
21019;DHT22;10667;51.056;3.732;2023-05-24T03:34:15;11.20;99.90
21019;DHT22;10667;51.056;3.732;2023-05-24T03:36:41;11.20;99.90
21019;DHT22;10667;51.056;3.732;2023-05-24T03:39:07;11.10;99.90
21019;DHT22;10667;51.056;3.732;2023-05-24T03:41:33;11.00;99.90
21019;DHT22;10667;51.056;3.732;2023-05-24T03:43:59;11.10;99.90
21019;DHT22;10667;51.056;3.732;2023-05-24T03:46:25;11.00;99.90
21019;DHT22;10667;51.056;3.732;2023-05-24T03:48:51;10.90;99.90
21019;DHT22;10667;51.056;3.732;2023-05-24T03:51:16;10.90;99.90
21019;DHT22;10667;51.056;3.732;2023-05-24T03:53:42;11.00;99.90
21019;DHT22;10667;51.056;3.732;2023-05-24T03:56:07;10.90;99.90
21019;DHT22;10667;51.056;3.732;2023-05-24T03:58:33;10.80;99.90
21019;DHT22;10667;51.056;3.732;2023-05-24T04:00:59;10.70;99.90
21019;DHT22;10667;51.056;3.732;2023-05-24T04:03:25;10.80;99.90
21019;DHT22;10667;51.056;3.732;2023-05-24T04:05:53;10.80;99.90
21019;DHT22;10667;51.056;3.732;2023-05-24T04:08:19;10.80;99.90
21019;DHT22;10667;51.056;3.732;2023-05-24T04:10:44;10.90;99.90
21019;DHT22;10667;51.056;3.732;2023-05-24T04:13:10;10.90;99.90
21019;DHT22;10667;51.056;3.732;2023-05-24T04:15:36;10.90;99.90
21019;DHT22;10667;51.056;3.732;2023-05-24T04:18:05;10.90;99.90
21019;DHT22;10667;51.056;3.732;2023-05-24T04:20:30;10.80;99.90
21019;DHT22;10667;51.056;3.732;2023-05-24T04:22:57;10.80;99.90
21019;DHT22;10667;51.056;3.732;2023-05-24T04:25:23;10.80;99.90
21019;DHT22;10667;51.056;3.732;2023-05-24T04:27:48;10.80;99.90
21019;DHT22;10667;51.056;3.732;2023-05-24T04:30:15;10.90;99.90
21019;DHT22;10667;51.056;3.732;2023-05-24T04:32:41;10.90;99.90
21019;DHT22;10667;51.056;3.732;2023-05-24T04:35:09;11.00;99.90
21019;DHT22;10667;51.056;3.732;2023-05-24T04:37:35;11.10;99.90
21019;DHT22;10667;51.056;3.732;2023-05-24T04:40:01;11.10;99.90
21019;DHT22;10667;51.056;3.732;2023-05-24T04:42:28;11.10;99.90
21019;DHT22;10667;51.056;3.732;2023-05-24T04:44:57;11.00;99.90
21019;DHT22;10667;51.056;3.732;2023-05-24T04:47:24;11.10;99.90
21019;DHT22;10667;51.056;3.732;2023-05-24T04:49:49;11.10;99.90
21019;DHT22;10667;51.056;3.732;2023-05-24T04:52:15;11.10;99.90
21019;DHT22;10667;51.056;3.732;2023-05-24T04:54:41;11.10;99.90
21019;DHT22;10667;51.056;3.732;2023-05-24T04:57:07;11.10;99.90
21019;DHT22;10667;51.056;3.732;2023-05-24T04:59:33;11.30;99.90
21019;DHT22;10667;51.056;3.732;2023-05-24T05:01:58;11.40;99.90
21019;DHT22;10667;51.056;3.732;2023-05-24T05:04:24;11.50;99.90
21019;DHT22;10667;51.056;3.732;2023-05-24T05:06:50;11.70;99.90
21019;DHT22;10667;51.056;3.732;2023-05-24T05:09:17;11.80;99.90
21019;DHT22;10667;51.056;3.732;2023-05-24T05:11:45;12.00;99.90
21019;DHT22;10667;51.056;3.732;2023-05-24T05:14:10;12.10;99.90
21019;DHT22;10667;51.056;3.732;2023-05-24T05:16:37;12.20;99.90
21019;DHT22;10667;51.056;3.732;2023-05-24T05:19:03;12.30;99.90
21019;DHT22;10667;51.056;3.732;2023-05-24T05:21:32;12.40;99.90
21019;DHT22;10667;51.056;3.732;2023-05-24T05:24:01;12.40;99.90
21019;DHT22;10667;51.056;3.732;2023-05-24T05:26:28;12.40;99.90
21019;DHT22;10667;51.056;3.732;2023-05-24T05:28:54;12.50;99.90
21019;DHT22;10667;51.056;3.732;2023-05-24T05:31:20;12.60;99.90
21019;DHT22;10667;51.056;3.732;2023-05-24T05:33:46;12.60;99.90
21019;DHT22;10667;51.056;3.732;2023-05-24T05:36:11;12.70;99.90
21019;DHT22;10667;51.056;3.732;2023-05-24T05:38:37;12.80;99.90
21019;DHT22;10667;51.056;3.732;2023-05-24T05:41:02;12.90;99.90
21019;DHT22;10667;51.056;3.732;2023-05-24T05:43:29;12.90;99.90
21019;DHT22;10667;51.056;3.732;2023-05-24T05:45:55;12.90;99.90
21019;DHT22;10667;51.056;3.732;2023-05-24T05:48:21;12.90;99.90
21019;DHT22;10667;51.056;3.732;2023-05-24T05:50:46;12.90;99.90
21019;DHT22;10667;51.056;3.732;2023-05-24T05:53:12;12.90;99.90
21019;DHT22;10667;51.056;3.732;2023-05-24T05:55:38;12.90;99.90
21019;DHT22;10667;51.056;3.732;2023-05-24T05:58:03;12.80;99.90
21019;DHT22;10667;51.056;3.732;2023-05-24T06:00:29;12.70;99.90
21019;DHT22;10667;51.056;3.732;2023-05-24T06:02:55;12.70;99.90
21019;DHT22;10667;51.056;3.732;2023-05-24T06:05:20;12.70;99.90
21019;DHT22;10667;51.056;3.732;2023-05-24T06:07:46;12.60;99.90
21019;DHT22;10667;51.056;3.732;2023-05-24T06:10:12;12.70;99.90
21019;DHT22;10667;51.056;3.732;2023-05-24T06:12:38;12.80;99.90
21019;DHT22;10667;51.056;3.732;2023-05-24T06:15:06;12.90;99.90
21019;DHT22;10667;51.056;3.732;2023-05-24T06:17:32;13.10;99.90
21019;DHT22;10667;51.056;3.732;2023-05-24T06:19:59;13.30;99.90
21019;DHT22;10667;51.056;3.732;2023-05-24T06:22:25;13.40;99.90
21019;DHT22;10667;51.056;3.732;2023-05-24T06:24:54;13.40;99.90
21019;DHT22;10667;51.056;3.732;2023-05-24T06:27:19;13.50;99.90
21019;DHT22;10667;51.056;3.732;2023-05-24T06:29:45;13.70;99.90
21019;DHT22;10667;51.056;3.732;2023-05-24T06:32:11;14.00;99.90
21019;DHT22;10667;51.056;3.732;2023-05-24T06:34:37;14.10;99.90
21019;DHT22;10667;51.056;3.732;2023-05-24T06:37:02;14.40;99.90
21019;DHT22;10667;51.056;3.732;2023-05-24T06:39:28;14.30;99.90
21019;DHT22;10667;51.056;3.732;2023-05-24T06:41:54;14.40;99.90
21019;DHT22;10667;51.056;3.732;2023-05-24T06:44:20;14.50;99.90
21019;DHT22;10667;51.056;3.732;2023-05-24T06:46:47;14.40;99.90
21019;DHT22;10667;51.056;3.732;2023-05-24T06:49:13;14.50;99.90
21019;DHT22;10667;51.056;3.732;2023-05-24T06:51:39;14.50;99.90
21019;DHT22;10667;51.056;3.732;2023-05-24T06:54:04;14.50;99.90
21019;DHT22;10667;51.056;3.732;2023-05-24T06:56:31;14.70;99.90
21019;DHT22;10667;51.056;3.732;2023-05-24T06:58:58;14.80;99.90
21019;DHT22;10667;51.056;3.732;2023-05-24T07:01:24;14.80;99.90
21019;DHT22;10667;51.056;3.732;2023-05-24T07:03:50;15.00;99.90
21019;DHT22;10667;51.056;3.732;2023-05-24T07:06:16;15.20;99.90
21019;DHT22;10667;51.056;3.732;2023-05-24T07:08:42;15.20;99.90
21019;DHT22;10667;51.056;3.732;2023-05-24T07:11:08;15.30;99.90
21019;DHT22;10667;51.056;3.732;2023-05-24T07:13:34;15.40;99.90
21019;DHT22;10667;51.056;3.732;2023-05-24T07:16:00;15.50;99.90
21019;DHT22;10667;51.056;3.732;2023-05-24T07:18:26;15.60;99.90
21019;DHT22;10667;51.056;3.732;2023-05-24T07:20:52;15.60;99.90
21019;DHT22;10667;51.056;3.732;2023-05-24T07:23:19;15.60;99.90
21019;DHT22;10667;51.056;3.732;2023-05-24T07:25:45;15.70;99.90
21019;DHT22;10667;51.056;3.732;2023-05-24T07:28:10;15.70;99.90
21019;DHT22;10667;51.056;3.732;2023-05-24T07:30:36;15.80;99.90
21019;DHT22;10667;51.056;3.732;2023-05-24T07:33:03;15.90;99.90
21019;DHT22;10667;51.056;3.732;2023-05-24T07:35:29;15.90;99.90
21019;DHT22;10667;51.056;3.732;2023-05-24T07:37:55;16.00;99.90
21019;DHT22;10667;51.056;3.732;2023-05-24T07:40:21;16.20;99.90
21019;DHT22;10667;51.056;3.732;2023-05-24T07:42:47;16.30;99.90
21019;DHT22;10667;51.056;3.732;2023-05-24T07:45:13;16.40;99.90
21019;DHT22;10667;51.056;3.732;2023-05-24T07:47:40;16.40;99.90
21019;DHT22;10667;51.056;3.732;2023-05-24T07:50:06;16.60;99.90
21019;DHT22;10667;51.056;3.732;2023-05-24T07:52:31;16.50;99.90
21019;DHT22;10667;51.056;3.732;2023-05-24T07:54:57;16.50;99.90
21019;DHT22;10667;51.056;3.732;2023-05-24T07:57:23;16.50;99.90
21019;DHT22;10667;51.056;3.732;2023-05-24T07:59:49;16.70;99.90
21019;DHT22;10667;51.056;3.732;2023-05-24T08:02:14;17.00;99.90
21019;DHT22;10667;51.056;3.732;2023-05-24T08:04:41;17.20;99.90
21019;DHT22;10667;51.056;3.732;2023-05-24T08:07:08;17.20;99.90
21019;DHT22;10667;51.056;3.732;2023-05-24T08:09:34;17.20;99.90
21019;DHT22;10667;51.056;3.732;2023-05-24T08:12:07;17.20;99.90
21019;DHT22;10667;51.056;3.732;2023-05-24T08:14:33;17.20;99.90
21019;DHT22;10667;51.056;3.732;2023-05-24T08:16:58;17.30;99.90
21019;DHT22;10667;51.056;3.732;2023-05-24T08:19:26;17.30;99.90
21019;DHT22;10667;51.056;3.732;2023-05-24T08:21:53;17.50;99.90
21019;DHT22;10667;51.056;3.732;2023-05-24T08:24:19;17.60;99.90
21019;DHT22;10667;51.056;3.732;2023-05-24T08:26:45;17.80;99.90
21019;DHT22;10667;51.056;3.732;2023-05-24T08:29:11;17.70;99.90
21019;DHT22;10667;51.056;3.732;2023-05-24T08:31:36;17.80;99.90
21019;DHT22;10667;51.056;3.732;2023-05-24T08:34:03;17.90;99.90
21019;DHT22;10667;51.056;3.732;2023-05-24T08:36:28;17.90;99.90
21019;DHT22;10667;51.056;3.732;2023-05-24T08:38:54;17.70;99.90
21019;DHT22;10667;51.056;3.732;2023-05-24T08:41:20;17.60;99.90
21019;DHT22;10667;51.056;3.732;2023-05-24T08:43:47;17.60;99.90
21019;DHT22;10667;51.056;3.732;2023-05-24T08:46:15;17.40;99.90
21019;DHT22;10667;51.056;3.732;2023-05-24T08:48:44;17.30;99.90
21019;DHT22;10667;51.056;3.732;2023-05-24T08:51:13;17.20;99.90
21019;DHT22;10667;51.056;3.732;2023-05-24T08:53:40;17.50;99.90
21019;DHT22;10667;51.056;3.732;2023-05-24T08:56:15;17.80;99.90
21019;DHT22;10667;51.056;3.732;2023-05-24T08:58:41;17.90;99.90
21019;DHT22;10667;51.056;3.732;2023-05-24T09:01:08;17.80;99.90
21019;DHT22;10667;51.056;3.732;2023-05-24T09:03:35;17.60;99.90
21019;DHT22;10667;51.056;3.732;2023-05-24T09:06:02;17.60;99.90
21019;DHT22;10667;51.056;3.732;2023-05-24T09:08:28;18.00;99.90
21019;DHT22;10667;51.056;3.732;2023-05-24T09:10:55;18.20;99.90
21019;DHT22;10667;51.056;3.732;2023-05-24T09:13:22;18.20;99.90
21019;DHT22;10667;51.056;3.732;2023-05-24T09:15:49;18.30;99.90
21019;DHT22;10667;51.056;3.732;2023-05-24T09:18:14;18.60;99.90
21019;DHT22;10667;51.056;3.732;2023-05-24T09:20:40;18.40;99.90
21019;DHT22;10667;51.056;3.732;2023-05-24T09:23:06;18.50;99.90
21019;DHT22;10667;51.056;3.732;2023-05-24T09:25:32;18.50;99.90
21019;DHT22;10667;51.056;3.732;2023-05-24T09:28:05;18.70;99.90
21019;DHT22;10667;51.056;3.732;2023-05-24T09:30:30;18.70;99.90
21019;DHT22;10667;51.056;3.732;2023-05-24T09:32:57;18.60;99.90
21019;DHT22;10667;51.056;3.732;2023-05-24T09:35:25;18.70;99.90
21019;DHT22;10667;51.056;3.732;2023-05-24T09:37:53;18.80;99.90
21019;DHT22;10667;51.056;3.732;2023-05-24T09:40:21;19.10;99.90
21019;DHT22;10667;51.056;3.732;2023-05-24T09:42:47;19.20;99.90
21019;DHT22;10667;51.056;3.732;2023-05-24T09:45:16;19.20;99.90
21019;DHT22;10667;51.056;3.732;2023-05-24T09:47:42;19.40;99.90
21019;DHT22;10667;51.056;3.732;2023-05-24T09:50:15;19.40;99.90
21019;DHT22;10667;51.056;3.732;2023-05-24T09:52:44;19.20;99.90
21019;DHT22;10667;51.056;3.732;2023-05-24T09:55:19;19.10;99.90
21019;DHT22;10667;51.056;3.732;2023-05-24T09:57:50;19.00;99.90
21019;DHT22;10667;51.056;3.732;2023-05-24T10:00:21;19.00;99.90
21019;DHT22;10667;51.056;3.732;2023-05-24T10:03:01;19.20;99.90
21019;DHT22;10667;51.056;3.732;2023-05-24T10:05:28;19.30;99.90
21019;DHT22;10667;51.056;3.732;2023-05-24T10:07:55;19.40;99.90
21019;DHT22;10667;51.056;3.732;2023-05-24T10:10:22;19.60;99.90
21019;DHT22;10667;51.056;3.732;2023-05-24T10:12:47;19.80;99.90
21019;DHT22;10667;51.056;3.732;2023-05-24T10:15:14;19.90;99.90
21019;DHT22;10667;51.056;3.732;2023-05-24T10:17:40;19.90;99.90
21019;DHT22;10667;51.056;3.732;2023-05-24T10:20:06;20.10;99.90
21019;DHT22;10667;51.056;3.732;2023-05-24T10:22:37;20.40;99.90
21019;DHT22;10667;51.056;3.732;2023-05-24T10:25:05;20.70;99.90
21019;DHT22;10667;51.056;3.732;2023-05-24T10:27:35;20.90;99.90
21019;DHT22;10667;51.056;3.732;2023-05-24T10:32:36;21.30;99.90
21019;DHT22;10667;51.056;3.732;2023-05-24T10:35:05;21.60;99.90
21019;DHT22;10667;51.056;3.732;2023-05-24T10:37:30;21.80;99.90
21019;DHT22;10667;51.056;3.732;2023-05-24T10:39:57;22.00;99.90
21019;DHT22;10667;51.056;3.732;2023-05-24T10:42:23;21.80;99.90
21019;DHT22;10667;51.056;3.732;2023-05-24T10:44:49;21.30;99.90
21019;DHT22;10667;51.056;3.732;2023-05-24T10:47:15;21.30;99.90
21019;DHT22;10667;51.056;3.732;2023-05-24T10:49:49;21.40;99.90
21019;DHT22;10667;51.056;3.732;2023-05-24T10:52:18;21.70;99.90
21019;DHT22;10667;51.056;3.732;2023-05-24T10:55:05;22.00;99.90
21019;DHT22;10667;51.056;3.732;2023-05-24T10:57:33;22.40;99.90
21019;DHT22;10667;51.056;3.732;2023-05-24T11:02:50;22.30;99.50
21019;DHT22;10667;51.056;3.732;2023-05-24T11:05:16;22.50;98.40
21019;DHT22;10667;51.056;3.732;2023-05-24T11:07:43;22.60;98.00
21019;DHT22;10667;51.056;3.732;2023-05-24T11:10:16;23.20;97.50
21019;DHT22;10667;51.056;3.732;2023-05-24T11:12:42;23.80;96.50
21019;DHT22;10667;51.056;3.732;2023-05-24T11:15:10;24.20;94.10
21019;DHT22;10667;51.056;3.732;2023-05-24T11:20:41;24.80;90.90
21019;DHT22;10667;51.056;3.732;2023-05-24T11:23:08;24.90;92.10
21019;DHT22;10667;51.056;3.732;2023-05-24T11:25:34;25.20;90.90
21019;DHT22;10667;51.056;3.732;2023-05-24T11:28:06;25.30;90.70
21019;DHT22;10667;51.056;3.732;2023-05-24T11:30:37;25.10;89.00
21019;DHT22;10667;51.056;3.732;2023-05-24T11:33:03;25.40;86.20
21019;DHT22;10667;51.056;3.732;2023-05-24T11:35:29;25.30;86.40
21019;DHT22;10667;51.056;3.732;2023-05-24T11:37:56;25.20;84.50
21019;DHT22;10667;51.056;3.732;2023-05-24T11:40:22;25.30;82.70
21019;DHT22;10667;51.056;3.732;2023-05-24T11:42:49;26.10;80.80
21019;DHT22;10667;51.056;3.732;2023-05-24T11:45:17;26.70;75.80
21019;DHT22;10667;51.056;3.732;2023-05-24T11:47:47;27.60;74.10
21019;DHT22;10667;51.056;3.732;2023-05-24T11:50:22;29.00;68.00
21019;DHT22;10667;51.056;3.732;2023-05-24T11:52:48;29.10;63.00
21019;DHT22;10667;51.056;3.732;2023-05-24T11:55:14;29.30;62.10
21019;DHT22;10667;51.056;3.732;2023-05-24T11:57:53;29.60;58.00
21019;DHT22;10667;51.056;3.732;2023-05-24T12:00:27;29.20;56.90
21019;DHT22;10667;51.056;3.732;2023-05-24T12:02:57;30.30;56.10
21019;DHT22;10667;51.056;3.732;2023-05-24T12:05:26;30.60;52.50
21019;DHT22;10667;51.056;3.732;2023-05-24T12:08:01;31.20;50.40
21019;DHT22;10667;51.056;3.732;2023-05-24T12:10:29;32.50;47.80
21019;DHT22;10667;51.056;3.732;2023-05-24T12:12:56;33.40;46.20
21019;DHT22;10667;51.056;3.732;2023-05-24T12:15:22;34.20;43.60
21019;DHT22;10667;51.056;3.732;2023-05-24T12:17:47;34.70;42.30
21019;DHT22;10667;51.056;3.732;2023-05-24T12:20:17;35.20;40.60
21019;DHT22;10667;51.056;3.732;2023-05-24T12:22:48;35.00;40.00
21019;DHT22;10667;51.056;3.732;2023-05-24T12:25:20;35.50;39.50
21019;DHT22;10667;51.056;3.732;2023-05-24T12:27:55;35.50;36.80
21019;DHT22;10667;51.056;3.732;2023-05-24T12:30:27;34.10;37.50
21019;DHT22;10667;51.056;3.732;2023-05-24T12:32:53;33.30;39.10
21019;DHT22;10667;51.056;3.732;2023-05-24T12:35:22;32.50;40.40
21019;DHT22;10667;51.056;3.732;2023-05-24T12:37:48;31.30;41.30
21019;DHT22;10667;51.056;3.732;2023-05-24T12:40:15;30.40;44.20
21019;DHT22;10667;51.056;3.732;2023-05-24T12:42:43;29.70;44.40
21019;DHT22;10667;51.056;3.732;2023-05-24T12:45:09;29.80;45.20
21019;DHT22;10667;51.056;3.732;2023-05-24T12:47:36;29.70;44.80
21019;DHT22;10667;51.056;3.732;2023-05-24T12:50:01;28.60;45.60
21019;DHT22;10667;51.056;3.732;2023-05-24T12:52:28;27.50;47.70
21019;DHT22;10667;51.056;3.732;2023-05-24T12:54:53;26.90;49.20
21019;DHT22;10667;51.056;3.732;2023-05-24T12:57:19;26.90;50.50
21019;DHT22;10667;51.056;3.732;2023-05-24T12:59:45;27.70;49.60
21019;DHT22;10667;51.056;3.732;2023-05-24T13:02:11;28.00;50.00
21019;DHT22;10667;51.056;3.732;2023-05-24T13:04:37;28.30;48.00
21019;DHT22;10667;51.056;3.732;2023-05-24T13:07:03;28.00;48.60
21019;DHT22;10667;51.056;3.732;2023-05-24T13:09:29;27.10;48.80
21019;DHT22;10667;51.056;3.732;2023-05-24T13:11:55;26.60;49.50
21019;DHT22;10667;51.056;3.732;2023-05-24T13:14:20;26.60;51.20
21019;DHT22;10667;51.056;3.732;2023-05-24T13:16:46;27.90;49.90
21019;DHT22;10667;51.056;3.732;2023-05-24T13:19:12;29.00;48.40
21019;DHT22;10667;51.056;3.732;2023-05-24T13:21:38;30.00;46.60
21019;DHT22;10667;51.056;3.732;2023-05-24T13:24:04;29.70;46.00
21019;DHT22;10667;51.056;3.732;2023-05-24T13:26:30;29.20;47.80
21019;DHT22;10667;51.056;3.732;2023-05-24T13:29:02;28.80;50.70
21019;DHT22;10667;51.056;3.732;2023-05-24T13:31:27;28.90;49.60
21019;DHT22;10667;51.056;3.732;2023-05-24T13:33:53;30.60;48.40
21019;DHT22;10667;51.056;3.732;2023-05-24T13:36:19;30.70;46.90
21019;DHT22;10667;51.056;3.732;2023-05-24T13:38:44;29.80;48.80
21019;DHT22;10667;51.056;3.732;2023-05-24T13:41:10;28.50;47.10
21019;DHT22;10667;51.056;3.732;2023-05-24T13:43:36;27.10;50.40
21019;DHT22;10667;51.056;3.732;2023-05-24T13:46:01;28.20;50.60
21019;DHT22;10667;51.056;3.732;2023-05-24T13:48:27;30.50;47.50
21019;DHT22;10667;51.056;3.732;2023-05-24T13:50:53;32.30;45.10
21019;DHT22;10667;51.056;3.732;2023-05-24T13:53:19;33.40;42.90
21019;DHT22;10667;51.056;3.732;2023-05-24T13:55:46;33.40;41.50
21019;DHT22;10667;51.056;3.732;2023-05-24T13:58:12;32.80;43.20
21019;DHT22;10667;51.056;3.732;2023-05-24T14:00:37;31.60;42.10
21019;DHT22;10667;51.056;3.732;2023-05-24T14:03:03;32.80;42.70
21019;DHT22;10667;51.056;3.732;2023-05-24T14:05:30;33.60;42.20
21019;DHT22;10667;51.056;3.732;2023-05-24T14:07:57;34.30;40.10
21019;DHT22;10667;51.056;3.732;2023-05-24T14:10:28;34.80;39.00
21019;DHT22;10667;51.056;3.732;2023-05-24T14:12:54;34.70;38.10
21019;DHT22;10667;51.056;3.732;2023-05-24T14:15:19;34.90;39.00
21019;DHT22;10667;51.056;3.732;2023-05-24T14:17:45;33.50;39.50
21019;DHT22;10667;51.056;3.732;2023-05-24T14:20:11;32.40;41.70
21019;DHT22;10667;51.056;3.732;2023-05-24T14:22:36;32.30;42.90
21019;DHT22;10667;51.056;3.732;2023-05-24T14:25:02;31.20;43.30
21019;DHT22;10667;51.056;3.732;2023-05-24T14:27:28;32.90;43.40
21019;DHT22;10667;51.056;3.732;2023-05-24T14:29:53;32.90;42.10
21019;DHT22;10667;51.056;3.732;2023-05-24T14:32:22;31.60;43.00
21019;DHT22;10667;51.056;3.732;2023-05-24T14:34:47;31.60;43.60
21019;DHT22;10667;51.056;3.732;2023-05-24T14:37:20;31.50;42.40
21019;DHT22;10667;51.056;3.732;2023-05-24T14:39:46;30.40;44.70
21019;DHT22;10667;51.056;3.732;2023-05-24T14:42:12;30.60;45.40
21019;DHT22;10667;51.056;3.732;2023-05-24T14:44:38;30.60;43.70
21019;DHT22;10667;51.056;3.732;2023-05-24T14:47:03;29.90;44.70
21019;DHT22;10667;51.056;3.732;2023-05-24T14:49:29;29.40;46.20
21019;DHT22;10667;51.056;3.732;2023-05-24T14:51:56;28.90;46.00
21019;DHT22;10667;51.056;3.732;2023-05-24T14:54:21;28.40;48.90
21019;DHT22;10667;51.056;3.732;2023-05-24T14:56:47;28.20;48.30
21019;DHT22;10667;51.056;3.732;2023-05-24T14:59:15;28.30;50.00
21019;DHT22;10667;51.056;3.732;2023-05-24T15:01:41;28.80;48.10
21019;DHT22;10667;51.056;3.732;2023-05-24T15:04:06;27.80;48.60
21019;DHT22;10667;51.056;3.732;2023-05-24T15:06:32;27.30;50.20
21019;DHT22;10667;51.056;3.732;2023-05-24T15:09:00;27.30;49.20
21019;DHT22;10667;51.056;3.732;2023-05-24T15:11:27;27.30;49.70
21019;DHT22;10667;51.056;3.732;2023-05-24T15:13:53;27.90;48.60
21019;DHT22;10667;51.056;3.732;2023-05-24T15:16:23;27.90;48.80
21019;DHT22;10667;51.056;3.732;2023-05-24T15:18:50;27.00;49.40
21019;DHT22;10667;51.056;3.732;2023-05-24T15:21:17;26.70;50.00
21019;DHT22;10667;51.056;3.732;2023-05-24T15:23:43;26.30;52.00
21019;DHT22;10667;51.056;3.732;2023-05-24T15:26:09;26.70;51.00
21019;DHT22;10667;51.056;3.732;2023-05-24T15:28:34;26.20;51.10
21019;DHT22;10667;51.056;3.732;2023-05-24T15:31:00;26.70;51.40
21019;DHT22;10667;51.056;3.732;2023-05-24T15:33:28;26.90;50.60
21019;DHT22;10667;51.056;3.732;2023-05-24T15:35:54;28.10;50.30
21019;DHT22;10667;51.056;3.732;2023-05-24T15:38:20;29.20;47.80
21019;DHT22;10667;51.056;3.732;2023-05-24T15:40:46;29.60;47.00
21019;DHT22;10667;51.056;3.732;2023-05-24T15:43:11;30.70;45.60
21019;DHT22;10667;51.056;3.732;2023-05-24T15:45:41;32.30;43.60
21019;DHT22;10667;51.056;3.732;2023-05-24T15:48:06;33.30;42.70
21019;DHT22;10667;51.056;3.732;2023-05-24T15:50:32;33.60;40.90